Time;durP1;ratioP1;P1;durP2;ratioP2;P2;SDS_P1;SDS_P2;PMS_P1;PMS_P2;Temp;Humidity;BMP_temperature;BMP_pressure;BME280_temperature;BME280_humidity;BME280_pressure;Samples;Min_cycle;Max_cycle;Signal;HPM_P1;HPM_P2
2023/05/21 13:01:40;;;;;;;17.73;7.10;;;;;;;;;;5013246;27;20425;-53
2023/05/21 13:04:06;;;;;;;17.20;7.05;;;;;;;;;;5001379;28;20543;-54
2023/05/21 13:06:40;;;;;;;19.00;6.85;;;;;;;;;;4999577;28;20042;-54
2023/05/21 13:09:05;;;;;;;20.98;7.43;;;;;;;;;;4999559;28;20613;-57
2023/05/21 13:11:30;;;;;;;19.07;7.03;;;;;;;;;;4998064;28;20035;-54
2023/05/21 13:13:56;;;;;;;18.67;6.93;;;;;;;;;;4999754;28;20013;-56
2023/05/21 13:16:22;;;;;;;23.55;8.38;;;;;;;;;;4998067;28;20439;-55
2023/05/21 13:18:47;;;;;;;17.48;6.95;;;;;;;;;;4999949;28;20025;-55
2023/05/21 13:21:12;;;;;;;17.20;7.13;;;;;;;;;;4996993;28;20041;-56
2023/05/21 13:23:38;;;;;;;17.23;6.87;;;;;;;;;;5000492;28;20272;-55
2023/05/21 13:26:03;;;;;;;16.30;7.07;;;;;;;;;;5000335;28;20740;-55
2023/05/21 13:28:28;;;;;;;23.30;7.63;;;;;;;;;;4997785;28;20542;-56
2023/05/21 13:30:54;;;;;;;16.45;6.80;;;;;;;;;;4997103;28;20068;-55
2023/05/21 13:33:20;;;;;;;21.13;8.10;;;;;;;;;;4998207;28;20026;-55
2023/05/21 13:35:49;;;;;;;15.70;6.07;;;;;;;;;;5000355;28;20099;-58
2023/05/21 13:38:15;;;;;;;22.38;8.02;;;;;;;;;;4997441;28;20216;-54
2023/05/21 13:40:40;;;;;;;16.80;6.80;;;;;;;;;;5000024;28;20072;-54
2023/05/21 13:43:05;;;;;;;16.33;7.13;;;;;;;;;;4998842;28;20978;-55
2023/05/21 13:45:30;;;;;;;23.15;8.30;;;;;;;;;;4997372;28;20277;-55
2023/05/21 13:47:56;;;;;;;15.23;6.40;;;;;;;;;;5000524;28;20018;-54
2023/05/21 13:50:22;;;;;;;27.30;8.50;;;;;;;;;;4996345;28;20245;-54
2023/05/21 13:52:47;;;;;;;15.77;5.90;;;;;;;;;;4998918;28;20018;-55
2023/05/21 13:55:14;;;;;;;14.10;6.10;;;;;;;;;;4998339;28;20360;-54
2023/05/21 13:57:40;;;;;;;17.67;5.72;;;;;;;;;;4999276;28;20055;-54
2023/05/21 14:00:07;;;;;;;19.27;6.60;;;;;;;;;;4998034;28;20154;-53
2023/05/21 14:02:33;;;;;;;17.08;6.60;;;;;;;;;;4997016;28;20118;-57
2023/05/21 14:04:58;;;;;;;15.57;6.10;;;;;;;;;;4997364;28;20033;-58
2023/05/21 14:07:23;;;;;;;20.93;6.93;;;;;;;;;;4997509;28;20637;-54
2023/05/21 14:09:49;;;;;;;16.45;6.63;;;;;;;;;;4997443;28;20253;-55
2023/05/21 14:12:14;;;;;;;18.27;6.70;;;;;;;;;;4988852;28;20034;-54
2023/05/21 14:14:40;;;;;;;16.05;6.05;;;;;;;;;;4985372;28;20021;-56
2023/05/21 14:17:06;;;;;;;18.83;6.93;;;;;;;;;;4983989;28;20112;-57
2023/05/21 14:19:31;;;;;;;21.83;7.37;;;;;;;;;;4982961;28;20022;-55
2023/05/21 14:21:58;;;;;;;16.17;6.87;;;;;;;;;;4985902;28;20861;-54
2023/05/21 14:24:23;;;;;;;22.17;7.75;;;;;;;;;;4984868;28;20083;-54
2023/05/21 14:26:49;;;;;;;19.00;6.63;;;;;;;;;;4986280;28;20037;-57
2023/05/21 14:29:14;;;;;;;18.53;7.07;;;;;;;;;;4986339;28;20242;-57
2023/05/21 14:31:39;;;;;;;16.70;6.85;;;;;;;;;;4984206;28;20276;-53
2023/05/21 14:34:07;;;;;;;16.23;7.03;;;;;;;;;;4985380;28;20135;-56
2023/05/21 14:36:33;;;;;;;24.80;8.05;;;;;;;;;;4983568;28;20272;-56
2023/05/21 14:38:58;;;;;;;18.73;6.75;;;;;;;;;;4984237;28;20412;-56
2023/05/21 14:41:25;;;;;;;28.38;8.65;;;;;;;;;;4983127;28;20125;-57
2023/05/21 14:43:50;;;;;;;18.73;7.03;;;;;;;;;;4986309;28;20021;-55
2023/05/21 14:46:16;;;;;;;17.52;6.70;;;;;;;;;;4984977;28;20038;-54
2023/05/21 14:48:41;;;;;;;18.83;6.93;;;;;;;;;;4990684;28;20026;-55
2023/05/21 14:51:07;;;;;;;20.80;7.00;;;;;;;;;;4988110;28;20054;-54
2023/05/21 14:53:32;;;;;;;22.48;7.72;;;;;;;;;;4985357;28;20722;-54
2023/05/21 14:55:57;;;;;;;20.92;6.90;;;;;;;;;;4983214;28;20709;-54
2023/05/21 14:58:23;;;;;;;24.52;7.88;;;;;;;;;;4982376;28;20084;-56
2023/05/21 15:00:48;;;;;;;18.43;7.03;;;;;;;;;;4983760;28;20065;-56
2023/05/21 15:03:13;;;;;;;15.67;6.87;;;;;;;;;;4983042;28;20671;-57
2023/05/21 15:05:38;;;;;;;15.83;6.87;;;;;;;;;;4982714;28;20283;-56
2023/05/21 15:08:04;;;;;;;20.33;7.23;;;;;;;;;;4986623;28;20129;-55
2023/05/21 15:10:30;;;;;;;26.52;8.13;;;;;;;;;;4982221;28;20768;-57
2023/05/21 15:12:55;;;;;;;20.42;7.05;;;;;;;;;;4982439;28;20049;-55
2023/05/21 15:15:20;;;;;;;28.70;7.80;;;;;;;;;;4982100;28;20029;-56
2023/05/21 15:17:46;;;;;;;20.60;7.17;;;;;;;;;;4985764;28;20026;-56
2023/05/21 15:20:11;;;;;;;25.67;8.20;;;;;;;;;;4982772;28;20033;-54
2023/05/21 15:22:37;;;;;;;38.88;9.52;;;;;;;;;;4983848;28;20045;-57
2023/05/21 15:25:02;;;;;;;22.60;6.95;;;;;;;;;;4982897;28;20014;-55
2023/05/21 15:27:28;;;;;;;27.48;8.48;;;;;;;;;;4982054;28;20041;-54
2023/05/21 15:29:53;;;;;;;17.33;6.40;;;;;;;;;;4984731;28;20253;-55
2023/05/21 15:32:21;;;;;;;19.57;6.73;;;;;;;;;;4982074;28;20030;-54
2023/05/21 15:34:47;;;;;;;20.35;7.07;;;;;;;;;;4984589;28;20261;-54
2023/05/21 15:37:15;;;;;;;25.85;7.43;;;;;;;;;;4984687;28;20042;-55
2023/05/21 15:39:41;;;;;;;18.35;6.88;;;;;;;;;;4981900;28;20097;-57
2023/05/21 15:42:06;;;;;;;20.30;6.70;;;;;;;;;;4984374;28;20030;-56
2023/05/21 15:44:31;;;;;;;27.00;7.87;;;;;;;;;;4984507;28;20026;-57
2023/05/21 15:46:57;;;;;;;20.67;7.07;;;;;;;;;;4984238;28;20858;-54
2023/05/21 15:49:22;;;;;;;25.40;7.20;;;;;;;;;;4983609;28;20137;-56
2023/05/21 15:51:47;;;;;;;18.75;6.75;;;;;;;;;;4981201;28;20299;-54
2023/05/21 15:54:13;;;;;;;16.58;6.57;;;;;;;;;;4983220;28;20022;-55
2023/05/21 15:56:39;;;;;;;28.52;8.07;;;;;;;;;;4982570;28;20046;-55
2023/05/21 15:59:04;;;;;;;18.38;6.30;;;;;;;;;;4983753;28;20084;-58
2023/05/21 16:01:30;;;;;;;26.60;7.80;;;;;;;;;;4983567;28;20053;-57
2023/05/21 16:03:55;;;;;;;17.88;6.63;;;;;;;;;;4984273;28;20022;-57
2023/05/21 16:06:20;;;;;;;22.00;7.07;;;;;;;;;;4982738;28;20819;-55
2023/05/21 16:08:46;;;;;;;23.58;7.63;;;;;;;;;;4982984;28;20261;-58
2023/05/21 16:11:11;;;;;;;21.08;6.85;;;;;;;;;;4983734;28;20054;-57
2023/05/21 16:13:36;;;;;;;31.23;8.60;;;;;;;;;;4983051;28;20028;-58
2023/05/21 16:16:02;;;;;;;25.27;7.50;;;;;;;;;;4983535;28;20100;-58
2023/05/21 16:18:27;;;;;;;42.92;9.80;;;;;;;;;;4984518;28;20032;-56
2023/05/21 16:20:53;;;;;;;24.03;7.50;;;;;;;;;;4982517;28;20034;-58
2023/05/21 16:23:19;;;;;;;24.60;7.45;;;;;;;;;;4981602;28;20380;-55
2023/05/21 16:25:44;;;;;;;28.00;7.70;;;;;;;;;;4981604;28;20732;-54
2023/05/21 16:28:11;;;;;;;24.80;7.82;;;;;;;;;;4984388;28;20375;-54
2023/05/21 16:30:36;;;;;;;27.48;7.75;;;;;;;;;;4981935;28;20029;-54
2023/05/21 16:33:01;;;;;;;27.38;7.32;;;;;;;;;;4984187;28;20032;-56
2023/05/21 16:35:26;;;;;;;30.43;8.37;;;;;;;;;;4981186;28;25647;-55
2023/05/21 16:37:52;;;;;;;22.57;7.40;;;;;;;;;;4982824;28;20762;-56
2023/05/21 16:40:17;;;;;;;19.33;6.97;;;;;;;;;;4981364;28;20372;-54
2023/05/21 16:42:42;;;;;;;22.02;6.88;;;;;;;;;;4980778;28;20257;-54
2023/05/21 16:45:08;;;;;;;23.50;7.07;;;;;;;;;;4982776;28;20384;-54
2023/05/21 16:47:33;;;;;;;28.55;8.38;;;;;;;;;;4980694;28;20275;-58
2023/05/21 16:49:59;;;;;;;17.98;6.32;;;;;;;;;;4984407;28;20041;-54
2023/05/21 16:52:24;;;;;;;21.25;7.05;;;;;;;;;;4984549;28;20045;-56
2023/05/21 16:54:50;;;;;;;17.90;6.35;;;;;;;;;;4984177;28;20022;-54
2023/05/21 16:57:15;;;;;;;15.57;6.35;;;;;;;;;;4983594;28;20093;-55
2023/05/21 16:59:41;;;;;;;34.07;8.60;;;;;;;;;;4980983;28;20065;-53
2023/05/21 17:02:07;;;;;;;21.42;6.60;;;;;;;;;;4982824;28;20276;-53
2023/05/21 17:04:32;;;;;;;34.20;8.98;;;;;;;;;;4981296;28;20132;-54
2023/05/21 17:06:57;;;;;;;19.97;6.93;;;;;;;;;;4983900;28;20034;-55
2023/05/21 17:09:22;;;;;;;20.83;7.20;;;;;;;;;;4982692;28;20281;-57
2023/05/21 17:11:48;;;;;;;22.30;7.40;;;;;;;;;;4980917;28;20608;-56
2023/05/21 17:14:13;;;;;;;19.83;6.90;;;;;;;;;;4982323;28;20253;-54
2023/05/21 17:16:41;;;;;;;37.23;8.70;;;;;;;;;;4980883;28;20085;-54
2023/05/21 17:19:07;;;;;;;27.80;7.38;;;;;;;;;;4982257;28;20256;-56
2023/05/21 17:21:32;;;;;;;33.38;8.75;;;;;;;;;;4978870;28;20511;-56
2023/05/21 17:23:57;;;;;;;25.70;7.55;;;;;;;;;;4981098;28;20061;-53
2023/05/21 17:26:23;;;;;;;28.02;8.43;;;;;;;;;;4981852;28;20042;-53
2023/05/21 17:28:48;;;;;;;29.02;8.23;;;;;;;;;;4981893;28;20026;-55
2023/05/21 17:31:13;;;;;;;31.17;8.40;;;;;;;;;;4982280;28;20084;-55
2023/05/21 17:33:38;;;;;;;40.03;9.67;;;;;;;;;;4980634;28;20276;-53
2023/05/21 17:36:04;;;;;;;24.47;7.97;;;;;;;;;;4981206;28;20277;-56
2023/05/21 17:38:29;;;;;;;32.67;9.13;;;;;;;;;;4980445;28;20034;-55
2023/05/21 17:40:55;;;;;;;23.55;7.50;;;;;;;;;;4980916;28;20423;-55
2023/05/21 17:43:20;;;;;;;22.45;7.28;;;;;;;;;;4983218;28;20049;-54
2023/05/21 17:45:45;;;;;;;23.38;7.35;;;;;;;;;;4982458;28;20149;-54
2023/05/21 17:48:10;;;;;;;31.50;8.43;;;;;;;;;;4983601;28;20052;-54
2023/05/21 17:50:36;;;;;;;29.58;8.60;;;;;;;;;;4983023;28;20274;-55
2023/05/21 17:53:01;;;;;;;18.13;6.78;;;;;;;;;;4986336;28;20018;-58
2023/05/21 17:55:26;;;;;;;17.70;6.90;;;;;;;;;;4982492;28;20045;-56
2023/05/21 17:57:52;;;;;;;32.33;8.23;;;;;;;;;;4984639;28;20271;-56
2023/05/21 18:00:17;;;;;;;22.17;7.03;;;;;;;;;;4986306;28;20037;-57
2023/05/21 18:02:42;;;;;;;38.28;9.63;;;;;;;;;;4985565;28;20040;-57
2023/05/21 18:05:08;;;;;;;21.10;7.33;;;;;;;;;;4986417;28;20247;-56
2023/05/21 18:07:33;;;;;;;29.02;8.20;;;;;;;;;;4984807;28;20265;-54
2023/05/21 18:09:58;;;;;;;27.17;8.20;;;;;;;;;;4986156;28;20021;-53
2023/05/21 18:12:24;;;;;;;27.00;7.03;;;;;;;;;;4985574;28;20269;-57
2023/05/21 18:14:49;;;;;;;25.85;8.02;;;;;;;;;;4984247;28;20038;-54
2023/05/21 18:17:14;;;;;;;23.67;7.53;;;;;;;;;;4985462;28;20694;-55
2023/05/21 18:19:39;;;;;;;44.72;9.80;;;;;;;;;;4982951;28;20282;-54
2023/05/21 18:22:05;;;;;;;35.17;8.53;;;;;;;;;;4985751;28;20026;-55
2023/05/21 18:24:30;;;;;;;28.27;8.53;;;;;;;;;;4982827;28;20281;-54
2023/05/21 18:26:55;;;;;;;28.83;8.43;;;;;;;;;;4984428;28;20285;-56
2023/05/21 18:29:20;;;;;;;27.37;8.90;;;;;;;;;;4986120;28;20265;-57
2023/05/21 18:31:46;;;;;;;44.20;10.50;;;;;;;;;;4984390;28;20817;-56
2023/05/21 18:34:11;;;;;;;27.05;8.48;;;;;;;;;;4986561;28;20360;-57
2023/05/21 18:36:39;;;;;;;33.80;9.32;;;;;;;;;;4983481;28;20057;-55
2023/05/21 18:39:05;;;;;;;29.58;8.82;;;;;;;;;;4983830;28;20018;-55
2023/05/21 18:41:30;;;;;;;25.92;8.43;;;;;;;;;;4994411;28;20422;-58
2023/05/21 18:43:56;;;;;;;38.67;9.98;;;;;;;;;;5004678;28;20052;-54
2023/05/21 18:46:21;;;;;;;31.52;9.18;;;;;;;;;;5003834;28;20079;-54
2023/05/21 18:48:47;;;;;;;46.50;11.40;;;;;;;;;;5003794;28;20112;-54
2023/05/21 18:51:12;;;;;;;25.92;8.70;;;;;;;;;;5004469;28;20459;-54
2023/05/21 18:53:39;;;;;;;34.42;9.82;;;;;;;;;;5003218;28;20491;-53
2023/05/21 18:56:06;;;;;;;26.02;9.00;;;;;;;;;;5004856;28;20049;-54
2023/05/21 18:58:31;;;;;;;26.55;8.25;;;;;;;;;;5002360;28;20076;-55
2023/05/21 19:00:57;;;;;;;31.55;8.95;;;;;;;;;;5004196;28;20139;-55
2023/05/21 19:03:22;;;;;;;30.05;9.38;;;;;;;;;;5005233;28;20021;-56
2023/05/21 19:05:47;;;;;;;33.13;9.23;;;;;;;;;;5001324;28;20609;-54
2023/05/21 19:08:13;;;;;;;29.23;9.33;;;;;;;;;;5003742;28;20041;-56
2023/05/21 19:10:38;;;;;;;43.45;10.90;;;;;;;;;;5001951;28;20372;-54
2023/05/21 19:13:03;;;;;;;23.45;8.48;;;;;;;;;;5004863;28;20072;-55
2023/05/21 19:15:29;;;;;;;22.25;8.85;;;;;;;;;;5002276;28;20025;-56
2023/05/21 19:17:54;;;;;;;31.35;9.70;;;;;;;;;;5002128;28;20028;-54
2023/05/21 19:20:23;;;;;;;29.48;9.13;;;;;;;;;;4999979;28;20100;-57
2023/05/21 19:22:49;;;;;;;40.83;10.40;;;;;;;;;;5001735;28;20025;-55
2023/05/21 19:25:14;;;;;;;31.48;9.38;;;;;;;;;;5001717;28;20029;-56
2023/05/21 19:27:39;;;;;;;45.08;11.55;;;;;;;;;;5003502;28;20136;-54
2023/05/21 19:30:05;;;;;;;35.47;10.43;;;;;;;;;;5002199;28;20022;-53
2023/05/21 19:32:30;;;;;;;21.98;8.70;;;;;;;;;;5002829;28;20071;-53
2023/05/21 19:34:57;;;;;;;27.80;9.23;;;;;;;;;;5001588;28;20500;-55
2023/05/21 19:37:22;;;;;;;33.17;10.18;;;;;;;;;;5002217;28;20062;-53
2023/05/21 19:39:48;;;;;;;46.05;11.52;;;;;;;;;;5001021;28;20052;-53
2023/05/21 19:42:14;;;;;;;31.30;9.88;;;;;;;;;;5001558;28;20157;-53
2023/05/21 19:44:40;;;;;;;41.15;10.93;;;;;;;;;;5002152;28;20030;-56
2023/05/21 19:47:05;;;;;;;24.08;9.13;;;;;;;;;;5002860;28;20021;-57
2023/05/21 19:49:30;;;;;;;29.02;9.35;;;;;;;;;;5002629;28;20021;-54
2023/05/21 19:51:56;;;;;;;30.60;9.32;;;;;;;;;;5001020;28;20029;-56
2023/05/21 19:54:21;;;;;;;32.97;10.35;;;;;;;;;;5003554;28;20571;-55
2023/05/21 19:56:46;;;;;;;52.97;11.68;;;;;;;;;;5000103;28;20030;-59
2023/05/21 19:59:12;;;;;;;31.05;10.02;;;;;;;;;;5003251;28;20045;-61
2023/05/21 20:01:38;;;;;;;39.60;11.00;;;;;;;;;;5001467;28;20037;-57
2023/05/21 20:04:04;;;;;;;34.90;10.55;;;;;;;;;;5004245;28;20352;-58
2023/05/21 20:06:30;;;;;;;45.22;11.40;;;;;;;;;;5001200;28;20148;-57
2023/05/21 20:08:55;;;;;;;42.55;11.10;;;;;;;;;;4997928;28;21652;-58
2023/05/21 20:11:20;;;;;;;35.70;10.90;;;;;;;;;;5001446;28;20120;-58
2023/05/21 20:13:48;;;;;;;47.38;11.98;;;;;;;;;;5001463;28;20072;-57
2023/05/21 20:16:14;;;;;;;33.03;9.88;;;;;;;;;;5001165;28;20080;-57
2023/05/21 20:18:40;;;;;;;48.80;12.45;;;;;;;;;;5000749;28;20025;-58
2023/05/21 20:21:05;;;;;;;41.20;10.80;;;;;;;;;;5003087;28;20454;-58
2023/05/21 20:23:30;;;;;;;39.30;10.85;;;;;;;;;;5003232;28;20122;-55
2023/05/21 20:25:56;;;;;;;32.00;10.77;;;;;;;;;;5001636;28;20037;-55
2023/05/21 20:28:21;;;;;;;40.90;11.27;;;;;;;;;;5003178;28;20260;-53
2023/05/21 20:30:53;;;;;;;61.38;17.38;;;;;;;;;;4999666;28;20295;-54
2023/05/21 20:33:19;;;;;;;;;;;;;;;;;;5002027;28;20014;-52
2023/05/21 20:35:44;;;;;;;54.35;12.52;;;;;;;;;;4999615;28;19919;-55
2023/05/21 20:38:09;;;;;;;36.97;10.32;;;;;;;;;;5003167;28;20021;-54
2023/05/21 20:40:35;;;;;;;42.50;11.48;;;;;;;;;;5001029;28;20052;-55
2023/05/21 20:43:00;;;;;;;40.10;12.43;;;;;;;;;;5000977;28;20018;-54
2023/05/21 20:45:28;;;;;;;41.03;12.05;;;;;;;;;;5003011;28;20029;-54
2023/05/21 20:47:55;;;;;;;54.85;13.02;;;;;;;;;;5000203;28;20107;-57
2023/05/21 20:50:24;;;;;;;36.35;11.52;;;;;;;;;;5002595;28;20066;-58
2023/05/21 20:52:50;;;;;;;49.70;12.27;;;;;;;;;;5001080;28;20021;-56
2023/05/21 20:55:16;;;;;;;39.83;11.70;;;;;;;;;;5001153;28;20097;-54
2023/05/21 20:57:41;;;;;;;45.33;12.07;;;;;;;;;;4984508;28;20014;-57
2023/05/21 21:00:09;;;;;;;43.22;11.43;;;;;;;;;;4999987;28;20029;-55
2023/05/21 21:02:37;;;;;;;36.10;11.35;;;;;;;;;;5002645;28;20025;-53
2023/05/21 21:05:02;;;;;;;38.08;11.13;;;;;;;;;;5000319;28;20050;-55
2023/05/21 21:07:31;;;;;;;32.60;10.32;;;;;;;;;;5000087;28;20163;-54
2023/05/21 21:09:56;;;;;;;45.35;11.65;;;;;;;;;;4999222;28;20725;-53
2023/05/21 21:12:21;;;;;;;35.35;10.75;;;;;;;;;;5001417;28;20484;-54
2023/05/21 21:14:47;;;;;;;49.97;12.20;;;;;;;;;;4999754;28;20022;-53
2023/05/21 21:17:12;;;;;;;39.17;11.60;;;;;;;;;;5000378;28;20363;-55
2023/05/21 21:19:37;;;;;;;37.72;11.27;;;;;;;;;;5002321;28;20728;-55
2023/05/21 21:22:03;;;;;;;42.35;12.05;;;;;;;;;;5001578;28;20022;-58
2023/05/21 21:24:28;;;;;;;38.17;10.93;;;;;;;;;;5004605;28;20399;-55
2023/05/21 21:26:53;;;;;;;51.30;13.00;;;;;;;;;;5005130;28;20534;-56
2023/05/21 21:29:18;;;;;;;39.53;11.25;;;;;;;;;;5006029;28;20261;-54
2023/05/21 21:31:46;;;;;;;52.38;13.13;;;;;;;;;;5004177;28;20057;-56
2023/05/21 21:34:11;;;;;;;37.83;11.88;;;;;;;;;;5005851;28;20029;-55
2023/05/21 21:36:37;;;;;;;54.30;18.55;;;;;;;;;;5004742;28;20063;-55
2023/05/21 21:39:02;;;;;;;50.27;15.00;;;;;;;;;;5000197;28;20018;-54
2023/05/21 21:41:27;;;;;;;48.70;12.57;;;;;;;;;;4998417;28;20352;-54
2023/05/21 21:43:52;;;;;;;65.22;14.32;;;;;;;;;;4999088;28;20324;-57
2023/05/21 21:46:18;;;;;;;41.67;12.17;;;;;;;;;;5001517;28;20037;-55
2023/05/21 21:48:43;;;;;;;44.50;11.98;;;;;;;;;;4999908;28;20842;-52
2023/05/21 21:51:08;;;;;;;41.72;11.20;;;;;;;;;;5001691;28;20040;-52
2023/05/21 21:53:34;;;;;;;43.63;11.90;;;;;;;;;;5000776;28;20045;-52
